Flight Track Log - Related Links

Times and Time Zones

All times are in EDT time to prevent confusion due to time zone crossing. See the VH-FVW flight status page for this flight to view local times or setup timezone preferences in your user account.


Time Position Orientation Groundspeed Altitude Reporting Facility
EDT Latitude Longitude Course Direction KTS MPH feet Rate Location/Type
Sun 06:47:12 PM -28.3944 153.5777 North 118 136 900  Level Aus ATC (RADAR)
Sun 06:48:11 PM -28.3638 153.5831 North 106 122 1,300 382 Climbing Aus ATC (RADAR)
Sun 06:49:02 PM -28.3400 153.5856 North 104 120 1,600 70 Climbing Aus ATC (RADAR)
Sun 06:49:37 PM -28.3207 153.5859 North 117 135 1,400 -76 Descending Aus ATC (RADAR)
Sun 06:50:21 PM -28.2959 153.5885 North 119 137 1,500 48 Climbing Aus ATC (RADAR)
Sun 06:51:41 PM -28.2525 153.5880 359° North 113 130 1,500 -46 Level Aus ATC (RADAR)
Sun 06:52:31 PM -28.2292 153.5773 338° Northwest 118 136 1,400  Descending Aus ATC (RADAR)
Sun 06:53:06 PM -28.2110 153.5789 North 112 129 1,500  Climbing Aus ATC (RADAR)
Sun 06:53:51 PM -28.1880 153.5735 348° North 111 128 1,400  Descending Aus ATC (RADAR)
Sun 06:54:31 PM -28.1696 153.5655 339° North 106 122 1,500 67 Climbing Aus ATC (RADAR)
Sun 06:55:21 PM -28.1520 153.5464 316° Northwest 104 120 1,500  Level Aus ATC (RADAR)
Sun 06:56:11 PM -28.1457 153.5196 285° West 107 123 1,500 -48 Level Aus ATC (RADAR)
Sun 06:57:26 PM -28.1147 153.4930 323° Northwest 111 128 1,400 -45 Descending Aus ATC (RADAR)
Sun 06:58:25 PM -28.0884 153.4744 328° Northwest 111 128 1,400  Level Aus ATC (RADAR)
Sun 06:59:11 PM -28.0670 153.4643 338° Northwest 111 128 1,400 75 Level Aus ATC (RADAR)
Sun 06:59:45 PM -28.0502 153.4571 339° North 110 127 1,500  Climbing Aus ATC (RADAR)
Sun 07:00:21 PM -28.0326 153.4505 342° North 112 129 1,400 -80 Descending Aus ATC (RADAR)
Sun 07:01:00 PM -28.0129 153.4466 350° North 108 124 1,400  Level Aus ATC (RADAR)
Sun 07:02:05 PM -27.9808 153.4415 352° North 108 124 1,400  Level Aus ATC (RADAR)
Sun 07:02:40 PM -27.9636 153.4386 351° North 107 123 1,400  Level Aus ATC (RADAR)
Sun 07:03:15 PM -27.9460 153.4367 355° North 108 124 1,400  Level Aus ATC (RADAR)
Sun 07:04:00 PM -27.9233 153.4344 355° North 108 124 1,400 57 Level Aus ATC (RADAR)
Sun 07:05:00 PM -27.8932 153.4275 349° North 110 127 1,500  Climbing Aus ATC (RADAR)
Sun 07:05:45 PM -27.8712 153.4207 345° North 110 127 1,400 -71 Descending Aus ATC (RADAR)
Sun 07:06:25 PM -27.8525 153.4118 337° Northwest 107 123 1,400  Level Aus ATC (RADAR)
Sun 07:07:30 PM -27.8263 153.3894 323° Northwest 107 123 1,400 48 Level Aus ATC (RADAR)
Sun 07:08:30 PM -27.8064 153.3628 310° West 108 124 1,500  Climbing Aus ATC (RADAR)
Sun 07:09:15 PM -27.7890 153.3451 318° Northwest 112 129 1,400 -75 Descending Aus ATC (RADAR)
Sun 07:09:50 PM -27.7764 153.3305 314° West 109 125 1,400  Level Aus ATC (RADAR)
Sun 07:10:35 PM -27.7607 153.3099 311° West 114 131 1,400  Level Aus ATC (RADAR)
Sun 07:11:35 PM -27.7377 153.2859 317° Northwest 112 129 1,400  Level Aus ATC (RADAR)
Sun 07:12:39 PM -27.7147 153.2590 314° West 108 124 1,400  Level Aus ATC (RADAR)
Sun 07:16:00 PM -27.6786 153.1962 303° West -418 Descending Aus ATC (Calculated)
Sun 07:17:00 PM -27.6640 153.1707 303° West  Level FlightAware Approximate
Sun 07:18:00 PM -27.6493 153.1451 303° West  Level FlightAware Approximate
Sun 07:19:00 PM -27.6346 153.1195 303° West  Level FlightAware Approximate
Sun 07:19:59 PM -27.6245 153.1021 303° West  Level Aus ATC (Calculated)
Sun 07:20:00 PM -27.6199 153.0940 303° West  Level FlightAware Approximate
Sun 07:21:00 PM -27.6096 153.0761 303° West  Level FlightAware Approximate
Sun 07:22:00 PM -27.5949 153.0506 303° West  Level FlightAware Approximate

Login

Don't have an account? Register now (free) for customized features, flight alerts, and more!